createdAt,value
2023-09-08T00:01:11.990Z,97208.53
2023-09-08T00:03:39.739Z,97198.91
2023-09-08T00:06:07.380Z,97209.88
2023-09-08T00:08:35.206Z,97196.72
2023-09-08T00:11:03.062Z,97198.41
2023-09-08T00:13:30.714Z,97201.44
2023-09-08T00:15:59.810Z,97202.25
2023-09-08T00:18:27.624Z,97203.78
2023-09-08T00:20:55.435Z,97202.41
2023-09-08T00:23:23.081Z,97200.72
2023-09-08T00:25:51.464Z,97202.75
2023-09-08T00:28:19.123Z,97198.56
2023-09-08T00:30:46.780Z,97201.41
2023-09-08T00:33:15.880Z,97203.22
2023-09-08T00:35:46.642Z,97205.56
2023-09-08T00:38:14.292Z,97202.38
2023-09-08T00:40:42.020Z,97202.38
2023-09-08T00:43:10.792Z,97204.56
2023-09-08T00:45:42.340Z,97205.19
2023-09-08T00:48:11.397Z,97199.16
2023-09-08T00:50:40.501Z,97207.09
2023-09-08T00:53:09.793Z,97197.63
2023-09-08T00:55:37.755Z,97196.13
2023-09-08T00:58:05.662Z,97204.69
2023-09-08T01:00:33.987Z,97203.00
2023-09-08T01:03:01.952Z,97202.63
2023-09-08T01:05:29.696Z,97210.84
2023-09-08T01:07:59.234Z,97207.31
2023-09-08T01:10:27.065Z,97207.41
2023-09-08T01:12:55.520Z,97202.31
2023-09-08T01:15:23.313Z,97198.59
2023-09-08T01:17:51.219Z,97196.88
2023-09-08T01:20:23.313Z,97187.75
2023-09-08T01:23:05.555Z,97189.81
2023-09-08T01:25:37.667Z,97192.81
2023-09-08T01:28:07.132Z,97186.94
2023-09-08T01:30:35.793Z,97197.69
2023-09-08T01:33:06.825Z,97189.25
2023-09-08T01:35:34.626Z,97200.88
2023-09-08T01:38:02.519Z,97190.78
2023-09-08T01:40:30.219Z,97192.09
2023-09-08T01:42:59.410Z,97188.81
2023-09-08T01:45:27.270Z,97189.72
2023-09-08T01:47:55.057Z,97190.81
2023-09-08T01:50:25.390Z,97181.72
2023-09-08T01:52:53.267Z,97192.13
2023-09-08T01:55:21.697Z,97184.53
2023-09-08T01:57:49.444Z,97185.25
2023-09-08T02:00:20.124Z,97190.44
2023-09-08T02:02:47.744Z,97185.47
2023-09-08T02:05:16.761Z,97188.84
2023-09-08T02:07:44.550Z,97178.56
2023-09-08T02:10:12.493Z,97177.03
2023-09-08T02:12:40.515Z,97174.34
2023-09-08T02:15:10.163Z,97178.72
2023-09-08T02:17:39.408Z,97178.22
2023-09-08T02:20:08.651Z,97185.56
2023-09-08T02:22:36.330Z,97185.94
2023-09-08T02:25:04.292Z,97181.75
2023-09-08T02:27:31.970Z,97183.59
2023-09-08T02:29:59.830Z,97181.38
2023-09-08T02:32:29.622Z,97177.81
2023-09-08T02:34:58.813Z,97183.53
2023-09-08T02:37:26.408Z,97172.06
2023-09-08T02:39:54.056Z,97168.84
2023-09-08T02:42:21.721Z,97173.03
2023-09-08T02:44:49.359Z,97170.50
2023-09-08T02:47:17.348Z,97172.66
2023-09-08T02:49:45.821Z,97181.88
2023-09-08T02:52:14.820Z,97174.13
2023-09-08T02:54:42.679Z,97173.13
2023-09-08T02:57:10.588Z,97181.22
2023-09-08T02:59:38.528Z,97170.75
2023-09-08T03:02:06.760Z,97172.63
2023-09-08T03:04:34.661Z,97172.78
2023-09-08T03:07:02.744Z,97172.06
2023-09-08T03:09:31.878Z,97173.38
2023-09-08T03:11:59.884Z,97167.31
2023-09-08T03:14:27.586Z,97164.72
2023-09-08T03:16:57.230Z,97171.56
2023-09-08T03:19:26.267Z,97166.56
2023-09-08T03:21:54.027Z,97168.72
2023-09-08T03:24:21.662Z,97160.50
2023-09-08T03:26:50.690Z,97177.09
2023-09-08T03:29:18.561Z,97164.97
2023-09-08T03:31:46.325Z,97173.19
2023-09-08T03:34:14.551Z,97174.81
2023-09-08T03:36:42.523Z,97170.72
2023-09-08T03:39:10.770Z,97167.38
2023-09-08T03:41:39.345Z,97168.34
2023-09-08T03:44:08.453Z,97162.38
2023-09-08T03:46:36.195Z,97168.88
2023-09-08T03:49:04.140Z,97163.09
2023-09-08T03:51:31.816Z,97164.53
2023-09-08T03:53:59.601Z,97166.56
2023-09-08T03:56:27.373Z,97162.03
2023-09-08T03:58:55.101Z,97165.69
2023-09-08T04:01:24.642Z,97164.19
2023-09-08T04:03:52.581Z,97161.50
2023-09-08T04:06:20.837Z,97163.16
2023-09-08T04:08:49.848Z,97180.16
2023-09-08T04:11:17.495Z,97177.31
2023-09-08T04:13:45.154Z,97170.03
2023-09-08T04:16:12.993Z,97171.16
2023-09-08T04:18:42.346Z,97167.94
2023-09-08T04:21:10.606Z,97176.44
2023-09-08T04:23:38.479Z,97178.75
2023-09-08T04:26:06.119Z,97175.22
2023-09-08T04:28:33.741Z,97174.69
2023-09-08T04:31:01.397Z,97172.84
2023-09-08T04:33:30.426Z,97171.78
2023-09-08T04:35:59.509Z,97176.34
2023-09-08T04:38:27.181Z,97178.59
2023-09-08T04:40:54.989Z,97186.97
2023-09-08T04:43:22.716Z,97187.63
2023-09-08T04:45:51.708Z,97181.81
2023-09-08T04:48:19.432Z,97187.03
2023-09-08T04:50:47.180Z,97186.34
2023-09-08T04:53:16.364Z,97190.38
2023-09-08T04:55:44.362Z,97187.09
2023-09-08T04:58:12.125Z,97186.28
2023-09-08T05:00:40.885Z,97187.97
2023-09-08T05:03:09.444Z,97192.34
2023-09-08T05:05:37.867Z,97197.56
2023-09-08T05:08:06.189Z,97201.78
2023-09-08T05:10:35.564Z,97198.34
2023-09-08T05:13:03.611Z,97206.88
2023-09-08T05:15:35.426Z,97202.63
2023-09-08T05:18:04.293Z,97207.56
2023-09-08T05:20:32.572Z,97198.34
2023-09-08T05:23:01.664Z,97207.09
2023-09-08T05:25:29.448Z,97206.66
2023-09-08T05:27:58.614Z,97206.50
2023-09-08T05:30:26.170Z,97199.28
2023-09-08T05:32:55.367Z,97208.19
2023-09-08T05:35:23.154Z,97204.59
2023-09-08T05:37:50.842Z,97196.22
2023-09-08T05:40:19.829Z,97213.06
2023-09-08T05:42:47.562Z,97216.44
2023-09-08T05:45:16.579Z,97214.50
2023-09-08T05:47:44.796Z,97220.75
2023-09-08T05:50:13.138Z,97216.22
2023-09-08T05:52:40.881Z,97216.59
2023-09-08T05:55:09.196Z,97220.25
2023-09-08T05:57:38.030Z,97219.66
2023-09-08T06:00:06.583Z,97220.03
2023-09-08T06:02:42.256Z,97215.19
2023-09-08T06:05:14.270Z,97213.66
2023-09-08T06:07:50.918Z,97214.88
2023-09-08T06:10:25.541Z,97219.78
2023-09-08T06:12:53.354Z,97213.13
2023-09-08T06:15:21.316Z,97212.47
2023-09-08T06:17:51.424Z,97207.00
2023-09-08T06:20:19.002Z,97202.13
2023-09-08T06:22:46.923Z,97213.66
2023-09-08T06:25:14.839Z,97204.25
2023-09-08T06:27:42.873Z,97204.31
2023-09-08T06:30:11.717Z,97211.28
2023-09-08T06:32:40.041Z,97211.66
2023-09-08T06:35:10.054Z,97214.06
2023-09-08T06:37:38.483Z,97216.84
2023-09-08T06:40:08.623Z,97219.25
2023-09-08T06:42:36.589Z,97217.75
2023-09-08T06:45:14.563Z,97212.06
2023-09-08T06:47:42.412Z,97211.75
2023-09-08T06:50:11.979Z,97211.63
2023-09-08T06:52:39.670Z,97205.22
2023-09-08T06:55:07.765Z,97209.16
2023-09-08T06:57:36.104Z,97215.56
2023-09-08T07:00:07.005Z,97218.28
2023-09-08T07:02:35.068Z,97206.13
2023-09-08T07:05:07.609Z,97208.53
2023-09-08T07:07:37.050Z,97210.25
2023-09-08T07:10:06.410Z,97212.78
2023-09-08T07:12:34.201Z,97209.91
2023-09-08T07:15:01.906Z,97210.56
2023-09-08T07:17:29.667Z,97210.03
2023-09-08T07:19:57.484Z,97206.13
2023-09-08T07:22:25.619Z,97210.50
2023-09-08T07:24:55.102Z,97207.28
2023-09-08T07:27:23.625Z,97206.94
2023-09-08T07:29:51.489Z,97208.44
2023-09-08T07:32:20.190Z,97205.03
2023-09-08T07:34:53.366Z,97211.56
2023-09-08T07:37:21.408Z,97206.97
2023-09-08T07:39:49.061Z,97197.97
2023-09-08T07:42:18.497Z,97205.31
2023-09-08T07:44:47.160Z,97211.16
2023-09-08T07:47:14.814Z,97211.78
2023-09-08T07:49:47.246Z,97206.78
2023-09-08T07:52:14.871Z,97215.72
2023-09-08T07:54:42.513Z,97206.50
2023-09-08T07:57:10.435Z,97202.06
2023-09-08T07:59:39.773Z,97216.31
2023-09-08T08:02:07.438Z,97209.81
2023-09-08T08:04:35.120Z,97208.50
2023-09-08T08:07:03.448Z,97210.31
2023-09-08T08:09:31.084Z,97209.75
2023-09-08T08:11:58.815Z,97206.09
2023-09-08T08:14:26.460Z,97204.81
2023-09-08T08:16:55.428Z,97210.00
2023-09-08T08:19:25.390Z,97210.47
2023-09-08T08:21:54.959Z,97215.06
2023-09-08T08:24:22.669Z,97210.00
2023-09-08T08:26:53.011Z,97214.38
2023-09-08T08:29:20.851Z,97210.63
2023-09-08T08:31:48.534Z,97211.94
2023-09-08T08:34:17.524Z,97211.81
2023-09-08T08:36:45.206Z,97203.91
2023-09-08T08:39:12.926Z,97206.91
2023-09-08T08:41:42.210Z,97203.97
2023-09-08T08:44:10.163Z,97200.81
2023-09-08T08:46:39.626Z,97202.16
2023-09-08T08:49:09.719Z,97206.88
2023-09-08T08:51:40.320Z,97200.34
2023-09-08T08:54:08.711Z,97206.22
2023-09-08T08:56:38.002Z,97208.34
2023-09-08T08:59:06.084Z,97194.81
2023-09-08T09:01:34.455Z,97203.66
2023-09-08T09:04:03.026Z,97204.22
2023-09-08T09:06:30.965Z,97198.25
2023-09-08T09:09:01.920Z,97193.28
2023-09-08T09:11:29.632Z,97193.78
2023-09-08T09:13:57.529Z,97190.00
2023-09-08T09:16:25.361Z,97189.66
2023-09-08T09:18:57.608Z,97195.53
2023-09-08T09:21:26.221Z,97191.59
2023-09-08T09:23:55.487Z,97197.75
2023-09-08T09:26:28.336Z,97191.72
2023-09-08T09:28:56.202Z,97195.50
2023-09-08T09:31:27.449Z,97203.75
2023-09-08T09:34:06.536Z,97194.28
2023-09-08T09:36:34.437Z,97194.50
2023-09-08T09:39:02.825Z,97199.59
2023-09-08T09:41:32.131Z,97197.94
2023-09-08T09:44:00.303Z,97191.03
2023-09-08T09:46:30.445Z,97188.75
2023-09-08T09:48:58.676Z,97194.69
2023-09-08T09:51:26.334Z,97186.31
2023-09-08T09:53:55.421Z,97191.75
2023-09-08T09:56:24.548Z,97182.50
2023-09-08T09:58:55.286Z,97190.91
2023-09-08T10:01:26.748Z,97192.97
2023-09-08T10:03:56.181Z,97193.41
2023-09-08T10:06:24.449Z,97188.97
2023-09-08T10:08:53.400Z,97195.69
2023-09-08T10:11:24.047Z,97188.53
2023-09-08T10:13:59.692Z,97185.72
2023-09-08T10:16:29.650Z,97178.97
2023-09-08T10:19:00.592Z,97180.81
2023-09-08T10:21:31.366Z,97177.59
2023-09-08T10:24:09.464Z,97173.97
2023-09-08T10:26:39.478Z,97176.22
2023-09-08T10:29:09.288Z,97176.09
2023-09-08T10:31:37.901Z,97164.84
2023-09-08T10:34:05.771Z,97161.66
2023-09-08T10:36:35.627Z,97169.44
2023-09-08T10:39:30.411Z,97171.41
2023-09-08T10:42:21.668Z,97163.41
2023-09-08T10:45:05.063Z,97167.53
2023-09-08T10:47:36.248Z,97160.41
2023-09-08T10:50:06.229Z,97158.94
2023-09-08T10:52:36.304Z,97159.69
2023-09-08T10:55:06.235Z,97159.47
2023-09-08T10:57:35.490Z,97160.78
2023-09-08T11:00:12.871Z,97160.53
2023-09-08T11:02:42.388Z,97159.59
2023-09-08T11:05:12.179Z,97157.78
2023-09-08T11:07:40.234Z,97163.66
2023-09-08T11:10:09.470Z,97164.00
2023-09-08T11:12:37.306Z,97150.16
2023-09-08T11:15:09.578Z,97151.25
2023-09-08T11:17:40.693Z,97155.13
2023-09-08T11:20:10.995Z,97158.50
2023-09-08T11:22:40.232Z,97149.19
2023-09-08T11:25:09.873Z,97152.69
2023-09-08T11:27:37.548Z,97151.22
2023-09-08T11:30:08.129Z,97153.56
2023-09-08T11:32:37.175Z,97146.94
2023-09-08T11:35:08.012Z,97153.09
2023-09-08T11:37:40.444Z,97160.16
2023-09-08T11:40:13.212Z,97156.31
2023-09-08T11:42:44.939Z,97152.38
2023-09-08T11:45:15.422Z,97154.25
2023-09-08T11:47:44.600Z,97154.25
2023-09-08T11:50:16.462Z,97149.63
2023-09-08T11:52:45.891Z,97156.25
2023-09-08T11:55:13.966Z,97148.19
2023-09-08T11:57:42.277Z,97148.50
2023-09-08T12:00:15.553Z,97155.97
2023-09-08T12:02:44.698Z,97152.09
2023-09-08T12:05:16.008Z,97150.41
2023-09-08T12:07:43.654Z,97152.06
2023-09-08T12:10:13.878Z,97144.34
2023-09-08T12:12:46.158Z,97146.13
2023-09-08T12:15:14.032Z,97138.75
2023-09-08T12:17:52.191Z,97144.03
2023-09-08T12:20:20.721Z,97136.16
2023-09-08T12:22:51.948Z,97138.16
2023-09-08T12:25:19.959Z,97136.19
2023-09-08T12:27:51.595Z,97137.44
2023-09-08T12:30:20.626Z,97149.75
2023-09-08T12:32:50.703Z,97136.59
2023-09-08T12:35:24.757Z,97135.56
2023-09-08T12:37:58.903Z,97129.13
2023-09-08T12:40:27.002Z,97129.72
2023-09-08T12:42:56.040Z,97130.31
2023-09-08T12:45:33.369Z,97124.84
2023-09-08T12:48:03.566Z,97126.97
2023-09-08T12:50:32.866Z,97118.88
2023-09-08T12:53:00.482Z,97123.00
2023-09-08T12:55:28.011Z,97120.47
2023-09-08T12:57:56.462Z,97117.09
2023-09-08T13:00:24.901Z,97113.09
2023-09-08T13:02:53.188Z,97114.50
2023-09-08T13:05:21.105Z,97114.72
2023-09-08T13:07:50.170Z,97109.22
2023-09-08T13:10:17.941Z,97115.78
2023-09-08T13:12:45.661Z,97114.44
2023-09-08T13:15:13.517Z,97119.19
2023-09-08T13:17:41.278Z,97105.94
2023-09-08T13:20:10.163Z,97107.13
2023-09-08T13:22:37.824Z,97100.69
2023-09-08T13:25:08.017Z,97095.50
2023-09-08T13:27:35.669Z,97099.09
2023-09-08T13:30:10.974Z,97098.88
2023-09-08T13:32:38.883Z,97095.06
2023-09-08T13:35:07.399Z,97095.50
2023-09-08T13:37:36.340Z,97096.75
2023-09-08T13:40:05.064Z,97085.06
2023-09-08T13:42:34.587Z,97083.31
2023-09-08T13:45:02.525Z,97080.03
2023-09-08T13:47:30.743Z,97078.47
2023-09-08T13:49:59.360Z,97074.75
2023-09-08T13:52:31.945Z,97071.19
2023-09-08T13:55:24.591Z,97069.03
2023-09-08T13:57:50.280Z,97084.03
2023-09-08T14:00:22.763Z,97080.28
2023-09-08T14:02:52.188Z,97081.06
2023-09-08T14:05:28.381Z,97088.25
2023-09-08T14:08:06.114Z,97086.75
2023-09-08T14:13:08.432Z,97071.72
2023-09-08T14:15:36.143Z,97076.38
2023-09-08T14:18:03.643Z,97073.16
2023-09-08T14:20:31.268Z,97078.78
2023-09-08T14:22:58.774Z,97075.66
2023-09-08T14:25:26.395Z,97078.81
2023-09-08T14:27:54.246Z,97076.03
2023-09-08T14:30:23.218Z,97073.00
2023-09-08T14:32:50.861Z,97075.09
2023-09-08T14:35:18.481Z,97069.22
2023-09-08T14:37:48.529Z,97074.94
2023-09-08T14:40:16.835Z,97078.25
2023-09-08T14:42:44.601Z,97064.25
2023-09-08T14:45:13.401Z,97073.28
2023-09-08T14:47:42.414Z,97066.03
2023-09-08T14:50:10.535Z,97058.94
2023-09-08T14:52:38.168Z,97060.72
2023-09-08T14:55:06.442Z,97064.03
2023-09-08T14:57:34.102Z,97058.47
2023-09-08T15:00:01.625Z,97061.38
2023-09-08T15:02:29.238Z,97058.66
2023-09-08T15:04:58.222Z,97054.06
2023-09-08T15:07:25.929Z,97062.84
2023-09-08T15:09:53.499Z,97051.69
2023-09-08T15:12:21.192Z,97056.56
2023-09-08T15:14:49.039Z,97059.69
2023-09-08T15:17:17.350Z,97054.78
2023-09-08T15:19:45.019Z,97048.72
2023-09-08T15:22:14.633Z,97053.69
2023-09-08T15:24:42.279Z,97060.34
2023-09-08T15:27:09.914Z,97061.16
2023-09-08T15:29:37.542Z,97056.47
2023-09-08T15:32:07.003Z,97058.25
2023-09-08T15:34:34.636Z,97058.56
2023-09-08T15:37:02.274Z,97065.38
2023-09-08T15:39:31.397Z,97061.38
2023-09-08T15:41:59.095Z,97064.94
2023-09-08T15:44:26.707Z,97055.66
2023-09-08T15:46:54.330Z,97060.31
2023-09-08T15:49:23.246Z,97053.50
2023-09-08T15:51:57.283Z,97050.72
2023-09-08T15:54:33.727Z,97049.63
2023-09-08T15:57:01.396Z,97052.97
2023-09-08T15:59:29.322Z,97053.00
2023-09-08T16:01:57.046Z,97050.50
2023-09-08T16:04:24.910Z,97051.06
2023-09-08T16:06:52.656Z,97045.81
2023-09-08T16:09:20.488Z,97041.94
2023-09-08T16:11:49.451Z,97049.41
2023-09-08T16:14:17.100Z,97046.81
2023-09-08T16:16:45.108Z,97047.00
2023-09-08T16:19:12.789Z,97049.91
2023-09-08T16:21:40.427Z,97042.06
2023-09-08T16:24:08.412Z,97049.97
2023-09-08T16:26:36.058Z,97050.97
2023-09-08T16:29:05.111Z,97048.56
2023-09-08T16:31:32.785Z,97047.28
2023-09-08T16:34:00.570Z,97048.88
2023-09-08T16:36:28.255Z,97046.47
2023-09-08T16:38:55.916Z,97053.28
2023-09-08T16:41:23.639Z,97043.53
2023-09-08T16:43:51.265Z,97054.03
2023-09-08T16:46:21.343Z,97049.97
2023-09-08T16:48:49.872Z,97060.19
2023-09-08T16:51:17.367Z,97049.44
2023-09-08T16:53:45.011Z,97047.78
2023-09-08T16:56:12.598Z,97051.03
2023-09-08T16:58:40.197Z,97053.84
2023-09-08T17:01:07.807Z,97054.66
2023-09-08T17:03:37.067Z,97060.78
2023-09-08T17:06:05.192Z,97056.97
2023-09-08T17:08:32.917Z,97064.94
2023-09-08T17:11:05.400Z,97065.69
2023-09-08T17:13:34.348Z,97063.31
2023-09-08T17:16:02.358Z,97061.44
2023-09-08T17:18:30.213Z,97064.16
2023-09-08T17:20:59.342Z,97063.91
2023-09-08T17:23:27.099Z,97060.19
2023-09-08T17:25:54.754Z,97062.44
2023-09-08T17:28:22.380Z,97057.19
2023-09-08T17:30:50.158Z,97061.59
2023-09-08T17:33:20.011Z,97066.59
2023-09-08T17:35:49.105Z,97069.50
2023-09-08T17:38:18.183Z,97062.66
2023-09-08T17:40:46.577Z,97067.03
2023-09-08T17:43:14.243Z,97070.59
2023-09-08T17:45:41.971Z,97069.28
2023-09-08T17:48:09.820Z,97068.25
2023-09-08T17:50:37.516Z,97070.06
2023-09-08T17:53:05.469Z,97076.03
2023-09-08T17:55:34.457Z,97076.19
2023-09-08T17:58:02.049Z,97073.81
2023-09-08T18:00:29.738Z,97078.41
2023-09-08T18:02:57.432Z,97081.81
2023-09-08T18:05:26.160Z,97084.81
2023-09-08T18:07:53.788Z,97079.44
2023-09-08T18:10:21.635Z,97086.50
2023-09-08T18:12:50.645Z,97089.84
2023-09-08T18:15:18.343Z,97085.28
2023-09-08T18:17:48.226Z,97078.56
2023-09-08T18:20:15.989Z,97082.44
2023-09-08T18:22:43.658Z,97086.50
2023-09-08T18:25:11.367Z,97085.22
2023-09-08T18:27:39.339Z,97090.72
2023-09-08T18:30:09.625Z,97096.63
2023-09-08T18:32:37.814Z,97098.75
2023-09-08T18:35:06.341Z,97097.94
2023-09-08T18:37:34.025Z,97098.00
2023-09-08T18:40:01.657Z,97095.66
2023-09-08T18:42:29.441Z,97101.47
2023-09-08T18:44:57.082Z,97104.41
2023-09-08T18:47:26.079Z,97110.31
2023-09-08T18:49:53.716Z,97106.75
2023-09-08T18:52:21.344Z,97111.63
2023-09-08T18:54:48.990Z,97110.38
2023-09-08T18:57:16.905Z,97108.72
2023-09-08T18:59:44.515Z,97110.19
2023-09-08T19:02:12.215Z,97106.88
2023-09-08T19:04:41.251Z,97109.81
2023-09-08T19:07:08.965Z,97115.03
2023-09-08T19:09:36.626Z,97117.91
2023-09-08T19:12:04.826Z,97113.53
2023-09-08T19:14:32.485Z,97111.22
2023-09-08T19:17:01.546Z,97110.38
2023-09-08T19:19:29.203Z,97118.97
2023-09-08T19:21:58.235Z,97108.72
2023-09-08T19:24:26.387Z,97115.81
2023-09-08T19:26:54.040Z,97113.94
2023-09-08T19:29:21.736Z,97122.31
2023-09-08T19:31:49.366Z,97120.00
2023-09-08T19:34:17.099Z,97125.41
2023-09-08T19:36:44.763Z,97124.72
2023-09-08T19:39:13.776Z,97118.66
2023-09-08T19:41:41.398Z,97116.50
2023-09-08T19:44:09.088Z,97125.75
2023-09-08T19:46:37.606Z,97121.09
2023-09-08T19:49:05.378Z,97118.47
2023-09-08T19:51:33.080Z,97111.91
2023-09-08T19:54:01.465Z,97120.66
2023-09-08T19:56:30.762Z,97113.97
2023-09-08T19:58:59.238Z,97113.13
2023-09-08T20:01:28.977Z,97109.59
2023-09-08T20:03:56.667Z,97114.31
2023-09-08T20:06:24.442Z,97112.56
2023-09-08T20:08:52.372Z,97116.69
2023-09-08T20:11:20.040Z,97110.41
2023-09-08T20:13:49.454Z,97111.59
2023-09-08T20:16:17.129Z,97109.34
2023-09-08T20:18:45.065Z,97110.63
2023-09-08T20:21:12.813Z,97107.22
2023-09-08T20:23:40.723Z,97098.91
2023-09-08T20:26:09.760Z,97106.00
2023-09-08T20:28:37.510Z,97112.47
2023-09-08T20:31:16.344Z,97113.97
2023-09-08T20:33:44.973Z,97111.38
2023-09-08T20:36:12.733Z,97111.75
2023-09-08T20:38:40.462Z,97110.16
2023-09-08T20:41:10.716Z,97115.84
2023-09-08T20:43:39.116Z,97112.81
2023-09-08T20:46:08.443Z,97113.00
2023-09-08T20:48:39.788Z,97114.97
2023-09-08T20:51:09.328Z,97110.97
2023-09-08T20:53:39.068Z,97105.25
2023-09-08T20:56:08.341Z,97108.19
2023-09-08T20:58:36.213Z,97113.41
2023-09-08T21:01:04.145Z,97114.84
2023-09-08T21:03:34.713Z,97108.94
2023-09-08T21:06:03.622Z,97107.06
2023-09-08T21:08:31.552Z,97116.63
2023-09-08T21:10:59.540Z,97111.47
2023-09-08T21:13:27.598Z,97108.06
2023-09-08T21:15:55.410Z,97115.50
2023-09-08T21:18:23.140Z,97109.63
2023-09-08T21:20:52.145Z,97109.34
2023-09-08T21:23:20.085Z,97103.69
2023-09-08T21:25:47.836Z,97108.31
2023-09-08T21:28:15.453Z,97101.38
2023-09-08T21:30:43.090Z,97105.59
2023-09-08T21:33:11.261Z,97104.16
2023-09-08T21:35:39.101Z,97100.91
2023-09-08T21:38:08.066Z,97105.03
2023-09-08T21:40:35.557Z,97113.72
2023-09-08T21:43:03.885Z,97112.44
2023-09-08T21:45:31.564Z,97102.03
2023-09-08T21:47:59.277Z,97116.63
2023-09-08T21:50:26.929Z,97107.09
2023-09-08T21:52:54.601Z,97112.22
2023-09-08T21:55:23.615Z,97097.53
2023-09-08T21:57:51.304Z,97105.03
2023-09-08T22:00:22.001Z,97110.16
2023-09-08T22:02:50.236Z,97101.31
2023-09-08T22:05:18.184Z,97106.63
2023-09-08T22:07:45.911Z,97115.69
2023-09-08T22:10:13.651Z,97105.22
2023-09-08T22:12:42.723Z,97105.03
2023-09-08T22:15:11.251Z,97110.81
2023-09-08T22:17:38.921Z,97104.56
2023-09-08T22:20:13.888Z,97103.25
2023-09-08T22:22:41.968Z,97110.25
2023-09-08T22:25:11.073Z,97102.50
2023-09-08T22:27:39.104Z,97099.50
2023-09-08T22:30:09.442Z,97105.66
2023-09-08T22:32:37.533Z,97104.47
2023-09-08T22:35:06.156Z,97106.13
2023-09-08T22:37:34.985Z,97098.84
2023-09-08T22:40:05.544Z,97092.94
2023-09-08T22:42:33.230Z,97099.31
2023-09-08T22:45:00.983Z,97103.88
2023-09-08T22:47:29.951Z,97086.31
2023-09-08T22:49:58.010Z,97088.09
2023-09-08T22:52:25.635Z,97088.75
2023-09-08T22:54:57.958Z,97080.94
2023-09-08T22:57:33.388Z,97084.66
2023-09-08T23:00:01.493Z,97084.19
2023-09-08T23:02:31.838Z,97085.22
2023-09-08T23:05:00.316Z,97077.47
2023-09-08T23:07:28.034Z,97078.84
2023-09-08T23:09:55.745Z,97076.50
2023-09-08T23:12:23.366Z,97082.94
2023-09-08T23:14:54.731Z,97081.25
2023-09-08T23:17:22.933Z,97084.63
2023-09-08T23:19:51.963Z,97082.28
2023-09-08T23:22:19.476Z,97085.38
2023-09-08T23:24:47.110Z,97084.38
2023-09-08T23:27:14.962Z,97075.63
2023-09-08T23:29:42.852Z,97073.63
2023-09-08T23:32:10.656Z,97071.97
2023-09-08T23:34:38.289Z,97071.97
2023-09-08T23:37:07.478Z,97074.16
2023-09-08T23:39:35.088Z,97066.91
2023-09-08T23:42:03.343Z,97073.03
2023-09-08T23:44:30.982Z,97070.53
2023-09-08T23:46:58.719Z,97065.00
2023-09-08T23:49:26.467Z,97064.34
2023-09-08T23:51:54.079Z,97062.00
2023-09-08T23:54:23.521Z,97061.50
2023-09-08T23:56:51.202Z,97066.44
2023-09-08T23:59:18.852Z,97059.63
